createdAt,value
2016-11-14T00:00:21.645Z,5.16
2016-11-14T00:01:31.312Z,5.3
2016-11-14T00:02:41.268Z,5.24
2016-11-14T00:03:51.236Z,5.06
2016-11-14T00:05:01.200Z,5.18
2016-11-14T00:06:11.174Z,5.16
2016-11-14T00:07:21.450Z,5.1
2016-11-14T00:08:31.767Z,5.12
2016-11-14T00:09:41.724Z,5.09
2016-11-14T00:10:51.381Z,5.16
2016-11-14T00:12:01.659Z,5.13
2016-11-14T00:13:11.959Z,5.03
2016-11-14T00:14:21.635Z,5.16
2016-11-14T00:15:31.940Z,5.21
2016-11-14T00:16:41.905Z,5.16
2016-11-14T00:17:51.871Z,5.15
2016-11-14T00:19:02.176Z,5.09
2016-11-14T00:20:12.130Z,5.18
2016-11-14T00:21:21.796Z,5.09
2016-11-14T00:22:31.758Z,5.21
2016-11-14T00:23:41.737Z,5.15
2016-11-14T00:24:51.722Z,5.12
2016-11-14T00:26:02.000Z,5.06
2016-11-14T00:27:11.968Z,5.15
2016-11-14T00:28:22.226Z,5
2016-11-14T00:29:32.499Z,5
2016-11-14T00:30:42.221Z,4.84
2016-11-14T00:31:52.234Z,4.85
2016-11-14T00:33:01.597Z,4.72
2016-11-14T00:34:11.576Z,4.68
2016-11-14T00:35:21.548Z,4.75
2016-11-14T00:36:31.835Z,4.61
2016-11-14T00:37:42.117Z,4.61
2016-11-14T00:38:51.763Z,4.53
2016-11-14T00:40:02.029Z,4.48
2016-11-14T00:41:12.298Z,4.47
2016-11-14T00:42:22.576Z,4.51
2016-11-14T00:43:32.579Z,4.56
2016-11-14T00:44:42.863Z,4.51
2016-11-14T00:45:52.832Z,4.4
2016-11-14T00:47:02.808Z,4.48
2016-11-14T00:48:13.097Z,4.42
2016-11-14T00:49:23.074Z,4.42
2016-11-14T00:50:33.347Z,4.32
2016-11-14T00:51:43.001Z,4.47
2016-11-14T00:52:52.699Z,4.32
2016-11-14T00:54:02.668Z,4.38
2016-11-14T00:55:12.633Z,4.26
2016-11-14T00:56:22.595Z,4.28
2016-11-14T00:57:32.872Z,4.22
2016-11-14T00:58:43.164Z,4.22
2016-11-14T00:59:53.140Z,4.14
2016-11-14T01:01:03.646Z,4.14
2016-11-14T01:02:13.603Z,4.18
2016-11-14T01:03:23.285Z,4.12
2016-11-14T01:04:33.566Z,4.11
2016-11-14T01:05:43.834Z,4.11
2016-11-14T01:06:54.141Z,3.97
2016-11-14T01:08:04.117Z,3.99
2016-11-14T01:09:14.378Z,3.93
2016-11-14T01:10:24.050Z,3.92
2016-11-14T01:11:33.754Z,3.94
2016-11-14T01:12:44.054Z,3.82
2016-11-14T01:13:54.341Z,3.85
2016-11-14T01:15:04.617Z,3.81
2016-11-14T01:16:14.962Z,3.81
2016-11-14T01:17:25.237Z,3.76
2016-11-14T01:18:34.901Z,3.81
2016-11-14T01:19:44.873Z,3.78
2016-11-14T01:20:54.836Z,3.76
2016-11-14T01:22:04.798Z,3.64
2016-11-14T01:23:14.748Z,3.74
2016-11-14T01:24:24.721Z,3.67
2016-11-14T01:25:34.997Z,3.64
2016-11-14T01:26:45.281Z,3.61
2016-11-14T01:27:55.242Z,3.67
2016-11-14T01:29:05.207Z,3.6
2016-11-14T01:30:15.485Z,3.6
2016-11-14T01:31:25.467Z,3.56
2016-11-14T01:32:35.839Z,3.63
2016-11-14T01:33:46.167Z,3.48
2016-11-14T01:34:55.836Z,3.67
2016-11-14T01:36:05.819Z,3.53
2016-11-14T01:37:16.129Z,3.53
2016-11-14T01:38:26.092Z,3.57
2016-11-14T01:39:36.058Z,3.48
2016-11-14T01:40:46.340Z,3.53
2016-11-14T01:41:55.981Z,3.54
2016-11-14T01:43:05.948Z,3.57
2016-11-14T01:44:16.239Z,3.48
2016-11-14T01:45:26.211Z,3.53
2016-11-14T01:46:36.174Z,3.57
2016-11-14T01:47:46.166Z,3.57
2016-11-14T01:48:56.453Z,3.56
2016-11-14T01:50:05.827Z,3.49
2016-11-14T01:51:16.181Z,3.48
2016-11-14T01:52:25.536Z,3.46
2016-11-14T01:53:35.803Z,3.53
2016-11-14T01:54:45.796Z,3.42
2016-11-14T01:55:55.796Z,3.43
2016-11-14T01:57:05.768Z,3.49
2016-11-14T01:58:15.733Z,3.42
2016-11-14T01:59:25.999Z,3.49
2016-11-14T02:00:35.974Z,3.46
2016-11-14T02:01:46.235Z,3.45
2016-11-14T02:02:56.532Z,3.42
2016-11-14T02:04:06.819Z,3.42
2016-11-14T02:05:17.100Z,3.42
2016-11-14T02:06:26.758Z,3.39
2016-11-14T02:07:37.039Z,3.27
2016-11-14T02:08:47.020Z,3.34
2016-11-14T02:09:56.982Z,3.32
2016-11-14T02:11:07.248Z,3.37
2016-11-14T02:12:16.901Z,3.27
2016-11-14T02:13:26.875Z,3.27
2016-11-14T02:14:36.845Z,3.24
2016-11-14T02:15:46.502Z,3.27
2016-11-14T02:16:56.508Z,3.26
2016-11-14T02:18:06.797Z,3.23
2016-11-14T02:19:16.760Z,3.23
2016-11-14T02:20:27.260Z,3.32
2016-11-14T02:21:37.533Z,3.11
2016-11-14T02:22:47.491Z,3.08
2016-11-14T02:23:57.778Z,3.17
2016-11-14T02:25:08.114Z,3.03
2016-11-14T02:26:18.390Z,3.13
2016-11-14T02:27:28.656Z,3.09
2016-11-14T02:28:38.949Z,3.09
2016-11-14T02:29:48.943Z,3.11
2016-11-14T02:30:58.905Z,3.09
2016-11-14T02:32:09.183Z,3.14
2016-11-14T02:33:19.470Z,3.08
2016-11-14T02:34:29.778Z,3.14
2016-11-14T02:35:39.728Z,3.02
2016-11-14T02:36:50.001Z,3.11
2016-11-14T02:38:00.270Z,3.11
2016-11-14T02:39:10.247Z,3.06
2016-11-14T02:40:20.210Z,3.06
2016-11-14T02:41:30.163Z,3.09
2016-11-14T02:42:39.825Z,3.11
2016-11-14T02:43:50.090Z,3.16
2016-11-14T02:45:00.065Z,3.11
2016-11-14T02:46:10.023Z,3.03
2016-11-14T02:47:20.336Z,3.05
2016-11-14T02:48:29.996Z,3.02
2016-11-14T02:49:40.288Z,3.02
2016-11-14T02:50:50.255Z,2.93
2016-11-14T02:52:00.245Z,2.98
2016-11-14T02:53:10.224Z,2.93
2016-11-14T02:54:20.190Z,2.93
2016-11-14T02:55:30.461Z,2.95
2016-11-14T02:56:40.742Z,2.96
2016-11-14T02:57:50.769Z,2.99
2016-11-14T02:59:01.046Z,2.98
2016-11-14T03:00:11.003Z,2.98
2016-11-14T03:01:20.971Z,2.98
2016-11-14T03:32:43.528Z,0.06
2016-11-14T03:33:53.484Z,0.13
2016-11-14T03:35:03.781Z,0.03
2016-11-14T03:36:14.069Z,0.06
2016-11-14T03:37:24.342Z,0.1
2016-11-14T03:38:34.602Z,0.2
2016-11-14T03:39:44.884Z,0.42
2016-11-14T03:40:54.835Z,0.53
2016-11-14T03:42:04.501Z,0.72
2016-11-14T03:43:14.767Z,0.86
2016-11-14T03:44:25.038Z,1.04
2016-11-14T03:45:35.008Z,1.15
2016-11-14T03:46:45.286Z,1.29
2016-11-14T03:47:55.257Z,1.46
2016-11-14T03:49:05.519Z,1.74
2016-11-14T03:50:15.794Z,1.83
2016-11-14T03:51:25.771Z,1.79
2016-11-14T03:52:35.741Z,1.94
2016-11-14T03:53:45.414Z,2.06
2016-11-14T03:54:55.687Z,2.18
2016-11-14T03:56:05.965Z,2.23
2016-11-14T03:57:15.934Z,2.31
2016-11-14T03:58:26.212Z,2.44
2016-11-14T03:59:36.495Z,2.44
2016-11-14T04:00:46.479Z,2.49
2016-11-14T04:01:56.472Z,2.54
2016-11-14T04:03:06.132Z,2.63
2016-11-14T04:04:16.092Z,2.66
2016-11-14T04:05:26.063Z,2.67
2016-11-14T04:06:36.329Z,2.55
2016-11-14T04:07:46.352Z,2.72
2016-11-14T04:08:56.356Z,2.73
2016-11-14T04:10:06.333Z,2.73
2016-11-14T04:11:15.999Z,2.81
2016-11-14T04:12:26.272Z,2.7
2016-11-14T04:13:35.925Z,2.77
2016-11-14T04:14:46.207Z,2.78
2016-11-14T04:15:56.482Z,2.76
2016-11-14T04:17:06.809Z,2.8
2016-11-14T04:18:16.775Z,2.77
2016-11-14T04:19:27.068Z,2.8
2016-11-14T04:20:37.031Z,2.83
2016-11-14T04:21:46.987Z,2.81
2016-11-14T04:22:57.262Z,2.83
2016-11-14T04:24:07.544Z,2.83
2016-11-14T04:25:17.811Z,2.91
2016-11-14T04:26:28.088Z,2.95
2016-11-14T04:27:38.354Z,2.95
2016-11-14T04:28:48.323Z,2.99
2016-11-14T04:29:58.592Z,3.06
2016-11-14T04:31:08.567Z,3.11
2016-11-14T04:32:18.837Z,3.09
2016-11-14T04:33:28.796Z,3.23
2016-11-14T04:34:39.074Z,3.32
2016-11-14T04:35:48.730Z,3.34
2016-11-14T04:36:58.990Z,3.32
2016-11-14T04:38:09.274Z,3.3
2016-11-14T04:39:18.925Z,3.32
2016-11-14T04:40:29.193Z,3.37
2016-11-14T04:41:39.478Z,3.29
2016-11-14T04:42:49.756Z,3.37
2016-11-14T04:43:59.718Z,3.23
2016-11-14T04:45:09.715Z,3.29
2016-11-14T04:46:19.686Z,3.17
2016-11-14T04:47:29.333Z,3.16
2016-11-14T04:48:39.021Z,3.19
2016-11-14T04:49:49.282Z,3.21
2016-11-14T04:50:58.954Z,3.16
2016-11-14T04:52:08.930Z,3.19
2016-11-14T04:53:18.592Z,3.17
2016-11-14T04:54:28.549Z,3.17
2016-11-14T04:55:38.846Z,3.16
2016-11-14T04:56:48.513Z,3.16
2016-11-14T04:57:58.794Z,3.13
2016-11-14T04:59:08.755Z,3.19
2016-11-14T05:00:19.071Z,3.17
2016-11-14T05:01:29.349Z,3.14
2016-11-14T05:02:39.620Z,3.14
2016-11-14T05:03:49.592Z,3.16
2016-11-14T05:04:59.244Z,3.11
2016-11-14T05:06:09.254Z,3.09
2016-11-14T05:07:19.528Z,3.13
2016-11-14T05:08:29.494Z,3.09
2016-11-14T05:09:39.782Z,3.09
2016-11-14T05:10:50.063Z,3.08
2016-11-14T05:12:00.045Z,3.05
2016-11-14T05:13:10.325Z,3.03
2016-11-14T05:14:20.297Z,2.99
2016-11-14T05:15:30.253Z,3.02
2016-11-14T05:16:40.226Z,3.02
2016-11-14T05:17:50.181Z,2.99
2016-11-14T05:19:00.161Z,2.95
2016-11-14T05:20:10.424Z,2.98
2016-11-14T05:21:20.072Z,2.96
2016-11-14T05:22:29.738Z,2.93
2016-11-14T05:23:39.385Z,2.93
2016-11-14T05:24:49.668Z,2.95
2016-11-14T05:25:59.935Z,2.98
2016-11-14T05:27:10.218Z,2.93
2016-11-14T05:28:19.908Z,2.93
2016-11-14T05:29:30.194Z,2.93
2016-11-14T05:30:40.157Z,2.9
2016-11-14T05:31:50.434Z,2.95
2016-11-14T05:33:00.398Z,2.93
2016-11-14T05:34:10.686Z,2.93
2016-11-14T05:35:20.647Z,2.9
2016-11-14T05:36:30.311Z,2.95
2016-11-14T05:37:39.970Z,2.93
2016-11-14T05:38:50.234Z,2.91
2016-11-14T05:40:00.514Z,2.91
2016-11-14T05:41:10.487Z,2.96
2016-11-14T05:42:20.754Z,2.95
2016-11-14T05:43:31.034Z,3.05
2016-11-14T05:44:40.996Z,3.01
2016-11-14T05:45:50.979Z,3.01
2016-11-14T05:47:01.284Z,3.06
2016-11-14T05:48:10.955Z,3.13
2016-11-14T05:49:20.937Z,3.08
2016-11-14T05:50:31.213Z,3.01
2016-11-14T05:51:41.176Z,3.11
2016-11-14T05:52:51.437Z,3.05
2016-11-14T05:54:01.404Z,3.11
2016-11-14T05:55:11.415Z,3.05
2016-11-14T05:56:21.073Z,3.11
2016-11-14T05:57:31.045Z,3.06
2016-11-14T05:58:41.017Z,3.09
2016-11-14T05:59:50.989Z,3.05
2016-11-14T06:01:01.244Z,3.05
2016-11-14T06:02:11.522Z,3.05
2016-11-14T06:03:21.188Z,3.14
2016-11-14T06:04:31.175Z,3.08
2016-11-14T06:05:41.093Z,3.13
2016-11-14T06:06:51.362Z,3.08
2016-11-14T06:08:01.320Z,3.16
2016-11-14T06:09:11.585Z,3.16
2016-11-14T06:10:21.548Z,3.11
2016-11-14T06:11:31.514Z,3.19
2016-11-14T06:12:41.826Z,3.13
2016-11-14T06:13:52.098Z,3.16
2016-11-14T06:15:02.064Z,3.16
2016-11-14T06:16:12.071Z,3.2
2016-11-14T06:17:22.032Z,3.23
2016-11-14T06:18:31.994Z,3.24
2016-11-14T06:19:41.957Z,3.3
2016-11-14T06:20:51.614Z,3.29
2016-11-14T06:22:01.273Z,3.34
2016-11-14T06:23:10.945Z,3.3
2016-11-14T06:24:21.218Z,3.29
2016-11-14T06:25:31.515Z,3.42
2016-11-14T06:26:41.471Z,3.35
2016-11-14T06:27:51.751Z,3.42
2016-11-14T06:29:02.031Z,3.46
2016-11-14T06:30:12.297Z,3.48
2016-11-14T06:31:22.572Z,3.48
2016-11-14T06:32:32.607Z,3.48
2016-11-14T06:33:42.623Z,3.49
2016-11-14T06:34:52.627Z,3.61
2016-11-14T06:36:02.589Z,3.63
2016-11-14T06:37:12.861Z,3.71
2016-11-14T06:38:23.163Z,3.72
2016-11-14T06:39:33.463Z,3.74
2016-11-14T06:40:43.121Z,3.78
2016-11-14T06:41:53.402Z,3.84
2016-11-14T06:43:03.049Z,3.86
2016-11-14T06:44:13.316Z,3.84
2016-11-14T06:45:23.279Z,3.86
2016-11-14T06:46:32.330Z,3.82
2016-11-14T06:47:42.220Z,3.92
2016-11-14T06:48:52.197Z,3.85
2016-11-14T06:50:02.179Z,3.85
2016-11-14T06:51:12.136Z,3.89
2016-11-14T06:52:22.098Z,3.96
2016-11-14T06:53:32.379Z,4.04
2016-11-14T06:54:42.657Z,4.08
2016-11-14T06:55:52.636Z,4.22
2016-11-14T06:57:02.598Z,4.2
2016-11-14T06:58:12.876Z,4.26
2016-11-14T06:59:23.147Z,4.28
2016-11-14T07:00:33.417Z,4.14
2016-11-14T07:01:43.374Z,4.33
2016-11-14T07:02:53.693Z,4.4
2016-11-14T07:04:03.653Z,4.33
2016-11-14T07:05:13.620Z,4.48
2016-11-14T07:06:23.591Z,4.54
2016-11-14T07:07:33.556Z,4.57
2016-11-14T07:08:43.207Z,4.71
2016-11-14T07:09:53.491Z,4.66
2016-11-14T07:11:03.768Z,4.74
2016-11-14T07:12:13.730Z,4.88
2016-11-14T07:13:24.017Z,4.95
2016-11-14T07:14:34.293Z,4.97
2016-11-14T07:15:44.255Z,5.02
2016-11-14T07:16:54.098Z,5.06
2016-11-14T07:18:03.767Z,5.1
2016-11-14T07:19:14.037Z,5.12
2016-11-14T07:20:23.708Z,5.26
2016-11-14T07:21:33.982Z,5.27
2016-11-14T07:22:44.260Z,5.31
2016-11-14T07:23:53.938Z,5.37
2016-11-14T07:25:04.218Z,5.49
2016-11-14T07:26:14.195Z,5.46
2016-11-14T07:27:24.188Z,5.52
2016-11-14T07:28:34.463Z,5.55
2016-11-14T07:29:44.740Z,5.64
2016-11-14T07:30:54.707Z,5.59
2016-11-14T07:32:04.983Z,5.69
2016-11-14T07:33:15.241Z,5.64
2016-11-14T07:34:25.221Z,5.81
2016-11-14T07:35:35.498Z,5.78
2016-11-14T07:36:45.782Z,5.82
2016-11-14T07:37:55.746Z,5.82
2016-11-14T07:39:06.023Z,5.87
2016-11-14T07:40:15.984Z,5.96
2016-11-14T07:41:25.962Z,6.05
2016-11-14T07:42:36.239Z,6.15
2016-11-14T07:43:46.202Z,6.28
2016-11-14T07:44:56.227Z,6.4
2016-11-14T07:46:06.197Z,6.37
2016-11-14T07:47:16.148Z,6.46
2016-11-14T07:48:25.507Z,6.55
2016-11-14T07:49:35.468Z,6.57
2016-11-14T07:50:45.442Z,6.65
2016-11-14T07:51:55.724Z,6.72
2016-11-14T07:53:05.698Z,6.73
2016-11-14T07:54:15.975Z,6.73
2016-11-14T07:55:25.947Z,6.72
2016-11-14T07:56:35.609Z,6.76
2016-11-14T07:57:45.572Z,6.79
2016-11-14T07:58:55.577Z,6.82
2016-11-14T08:00:05.240Z,6.86
2016-11-14T08:01:15.510Z,7
2016-11-14T08:02:25.480Z,6.94
2016-11-14T08:03:35.772Z,6.98
2016-11-14T08:04:45.720Z,7
2016-11-14T08:05:55.710Z,7.13
2016-11-14T08:07:05.704Z,7.12
2016-11-14T08:08:15.690Z,7.23
2016-11-14T08:09:25.996Z,7.31
2016-11-14T08:10:35.655Z,7.19
2016-11-14T08:11:45.616Z,7.39
2016-11-14T08:12:55.581Z,7.51
2016-11-14T08:14:05.863Z,7.44
2016-11-14T08:15:15.825Z,7.48
2016-11-14T08:16:25.790Z,7.54
2016-11-14T08:17:36.065Z,7.58
2016-11-14T08:18:46.361Z,7.67
2016-11-14T08:19:56.337Z,7.73
2016-11-14T08:21:06.308Z,7.78
2016-11-14T08:22:16.595Z,7.71
2016-11-14T08:23:26.273Z,7.75
2016-11-14T08:24:35.928Z,7.7
2016-11-14T08:25:46.210Z,7.82
2016-11-14T08:26:56.177Z,7.82
2016-11-14T08:28:05.833Z,7.88
2016-11-14T08:29:16.117Z,7.98
2016-11-14T08:30:26.403Z,7.92
2016-11-14T08:31:36.388Z,8.04
2016-11-14T08:32:46.361Z,7.93
2016-11-14T08:33:56.322Z,7.99
2016-11-14T08:35:06.598Z,8.04
2016-11-14T08:36:16.580Z,8.16
2016-11-14T08:37:26.547Z,8.17
2016-11-14T08:38:36.820Z,8.19
2016-11-14T08:39:47.097Z,8.36
2016-11-14T08:40:57.103Z,8.42
2016-11-14T08:42:07.069Z,8.44
2016-11-14T08:43:17.046Z,8.36
2016-11-14T08:44:27.133Z,8.4
2016-11-14T08:45:37.092Z,8.44
2016-11-14T08:46:47.355Z,8.58
2016-11-14T08:47:57.622Z,8.64
2016-11-14T08:49:07.580Z,8.64
2016-11-14T08:50:17.573Z,8.76
2016-11-14T08:51:27.545Z,8.76
2016-11-14T08:52:37.519Z,8.76
2016-11-14T08:53:47.800Z,8.77
2016-11-14T08:54:58.067Z,8.72
2016-11-14T08:56:08.035Z,8.77
2016-11-14T08:57:18.170Z,8.76
2016-11-14T08:58:28.471Z,9
2016-11-14T08:59:38.765Z,9.29
2016-11-14T09:00:48.746Z,9.85
2016-11-14T09:01:58.718Z,10.28
2016-11-14T09:03:08.695Z,10.36
2016-11-14T09:04:18.371Z,10.61
2016-11-14T09:05:28.662Z,10.85
2016-11-14T09:06:38.009Z,11.08
2016-11-14T09:07:48.290Z,11.33
2016-11-14T09:08:58.608Z,11.61
2016-11-14T09:10:08.907Z,11.95
2016-11-14T09:11:19.195Z,12.23
2016-11-14T09:12:29.181Z,12.38
2016-11-14T09:13:39.154Z,12.48
2016-11-14T09:14:49.125Z,12.44
2016-11-14T09:15:59.407Z,12.59
2016-11-14T09:17:09.387Z,12.56
2016-11-14T09:18:19.365Z,12.76
2016-11-14T09:19:29.644Z,13.14
2016-11-14T09:20:39.925Z,13.16
2016-11-14T09:21:49.891Z,12.62
2016-11-14T09:23:00.158Z,12.05
2016-11-14T09:24:10.464Z,11.59
2016-11-14T09:25:20.433Z,11.18
2016-11-14T09:26:30.712Z,11.03
2016-11-14T09:27:40.994Z,10.9
2016-11-14T09:28:50.657Z,10.76
2016-11-14T09:30:00.632Z,10.66
2016-11-14T09:31:10.914Z,10.51
2016-11-14T09:32:20.905Z,10.38
2016-11-14T09:33:30.873Z,10.42
2016-11-14T09:34:40.879Z,10.46
2016-11-14T09:35:50.850Z,10.52
2016-11-14T09:37:00.864Z,10.55
2016-11-14T09:38:10.883Z,10.38
2016-11-14T09:39:20.853Z,10.39
2016-11-14T09:40:30.829Z,10.51
2016-11-14T09:41:41.120Z,10.49
2016-11-14T09:42:51.425Z,10.28
2016-11-14T09:44:01.693Z,10.17
2016-11-14T09:45:11.989Z,10.02
2016-11-14T09:46:21.656Z,10.03
2016-11-14T09:47:31.640Z,9.88
2016-11-14T09:48:41.963Z,9.81
2016-11-14T09:49:51.933Z,9.74
2016-11-14T09:51:01.617Z,9.66
2016-11-14T09:52:11.592Z,9.7
2016-11-14T09:53:21.588Z,9.62
2016-11-14T09:54:31.257Z,9.6
2016-11-14T09:55:40.949Z,9.74
2016-11-14T09:56:51.257Z,9.78
2016-11-14T09:58:01.524Z,9.8
2016-11-14T09:59:11.487Z,9.64
2016-11-14T10:00:21.778Z,9.63
2016-11-14T10:01:32.070Z,9.56
2016-11-14T10:02:42.045Z,9.62
2016-11-14T10:03:52.343Z,9.56
2016-11-14T10:05:02.313Z,9.53
2016-11-14T10:06:12.590Z,9.52
2016-11-14T10:07:22.550Z,9.62
2016-11-14T10:08:32.855Z,9.64
2016-11-14T10:09:42.835Z,9.64
2016-11-14T10:10:53.156Z,9.74
2016-11-14T10:12:03.439Z,9.53
2016-11-14T10:13:13.726Z,9.6
2016-11-14T10:14:24.010Z,9.57
2016-11-14T10:15:34.279Z,9.63
2016-11-14T10:16:44.246Z,10.08
2016-11-14T10:17:54.536Z,10.25
2016-11-14T10:19:04.818Z,10.14
2016-11-14T10:20:15.090Z,10.2
2016-11-14T10:21:25.382Z,10.2
2016-11-14T10:22:35.658Z,10.28
2016-11-14T10:23:45.665Z,10.33
2016-11-14T10:24:55.941Z,10.65
2016-11-14T10:26:05.294Z,11.03
2016-11-14T10:27:15.006Z,11.05
2016-11-14T10:28:25.282Z,11.18
2016-11-14T10:29:35.281Z,11.2
2016-11-14T10:30:45.555Z,11.27
2016-11-14T10:31:55.222Z,11.34
2016-11-14T10:33:05.200Z,11.39
2016-11-14T10:34:15.206Z,11.41
2016-11-14T10:35:25.176Z,11.43
2016-11-14T10:36:35.467Z,11.45
2016-11-14T10:37:45.775Z,11.49
2016-11-14T10:38:55.762Z,11.39
2016-11-14T10:40:05.721Z,11.35
2016-11-14T10:41:16.001Z,11.41
2016-11-14T10:42:25.992Z,11.41
2016-11-14T10:43:35.958Z,11.66
2016-11-14T10:44:45.937Z,11.7
2016-11-14T10:45:55.912Z,11.7
2016-11-14T10:47:06.208Z,11.67
2016-11-14T10:48:16.176Z,11.7
2016-11-14T10:49:26.154Z,11.73
2016-11-14T10:50:36.125Z,11.86
2016-11-14T10:51:46.100Z,11.84
2016-11-14T10:52:56.368Z,11.85
2016-11-14T10:54:06.344Z,11.78
2016-11-14T10:55:16.625Z,11.67
2016-11-14T10:56:26.637Z,11.6
2016-11-14T10:57:36.611Z,11.48
2016-11-14T10:58:46.281Z,11.49
2016-11-14T10:59:56.238Z,11.51
2016-11-14T11:01:06.515Z,11.48
2016-11-14T11:02:16.520Z,11.57
2016-11-14T11:03:26.488Z,11.95
2016-11-14T11:04:36.770Z,11.78
2016-11-14T11:05:47.051Z,11.75
2016-11-14T11:06:57.323Z,11.73
2016-11-14T11:08:07.599Z,11.51
2016-11-14T11:09:17.912Z,11.39
2016-11-14T11:10:28.214Z,11.26
2016-11-14T11:11:38.187Z,11.2
2016-11-14T11:12:48.517Z,11.16
2016-11-14T11:13:58.803Z,11.02
2016-11-14T11:15:08.772Z,10.9
2016-11-14T11:16:19.050Z,10.8
2016-11-14T11:17:29.016Z,10.8
2016-11-14T11:18:38.994Z,10.83
2016-11-14T11:19:49.276Z,10.79
2016-11-14T11:20:59.567Z,10.87
2016-11-14T11:22:09.854Z,10.91
2016-11-14T11:23:19.517Z,11.05
2016-11-14T11:24:29.793Z,11
2016-11-14T11:25:39.750Z,11.12
2016-11-14T11:26:50.030Z,11.18
2016-11-14T11:27:59.678Z,11.24
2016-11-14T11:29:09.960Z,11.68
2016-11-14T11:30:19.935Z,12.04
2016-11-14T11:31:29.604Z,12.23
2016-11-14T11:32:39.279Z,12.31
2016-11-14T11:33:48.948Z,12.08
2016-11-14T11:34:58.923Z,11.91
2016-11-14T11:36:09.201Z,11.78
2016-11-14T11:37:19.501Z,11.7
2016-11-14T11:38:29.478Z,11.46
2016-11-14T11:39:39.451Z,11.46
2016-11-14T11:40:49.435Z,11.39
2016-11-14T11:41:59.733Z,11.35
2016-11-14T11:43:10.029Z,11.3
2016-11-14T11:44:20.302Z,11.21
2016-11-14T11:45:30.269Z,11.03
2016-11-14T11:46:40.235Z,10.87
2016-11-14T11:47:50.563Z,10.76
2016-11-14T11:49:00.539Z,10.66
2016-11-14T11:50:10.530Z,10.66
2016-11-14T11:51:20.813Z,10.52
2016-11-14T11:52:31.089Z,10.52
2016-11-14T11:53:41.390Z,10.51
2016-11-14T11:54:51.371Z,10.59
2016-11-14T11:56:01.649Z,10.7
2016-11-14T11:57:11.930Z,10.83
2016-11-14T11:58:22.237Z,10.87
2016-11-14T11:59:32.258Z,11.06
2016-11-14T12:00:42.531Z,11.09
2016-11-14T12:01:51.898Z,11.26
2016-11-14T12:03:00.948Z,11.28
2016-11-14T12:04:10.609Z,11.35
2016-11-14T12:05:20.578Z,11.38
2016-11-14T12:06:30.870Z,11.35
2016-11-14T12:07:40.531Z,11.48
2016-11-14T12:08:50.221Z,11.67
2016-11-14T12:10:00.503Z,12.07
2016-11-14T12:11:10.790Z,12.52
2016-11-14T12:12:21.077Z,12.81
2016-11-14T12:13:30.763Z,12.98
2016-11-14T12:14:40.729Z,12.8
2016-11-14T12:15:50.400Z,12.71
2016-11-14T12:17:00.670Z,12.77
2016-11-14T12:18:10.045Z,12.76
2016-11-14T12:19:20.046Z,12.94
2016-11-14T12:20:30.330Z,13.11
2016-11-14T12:21:40.969Z,13.25
2016-11-14T12:22:51.247Z,13.28
2016-11-14T12:24:01.523Z,13.25
2016-11-14T12:25:11.185Z,13.24
2016-11-14T12:26:21.147Z,13.35
2016-11-14T12:27:31.132Z,13.36
2016-11-14T12:28:41.421Z,13.21
2016-11-14T12:29:51.389Z,13.24
2016-11-14T12:31:01.043Z,13.17
2016-11-14T12:32:11.335Z,13.06
2016-11-14T12:33:21.630Z,12.69
2016-11-14T12:34:31.903Z,12.44
2016-11-14T12:35:41.560Z,12.34
2016-11-14T12:36:51.840Z,12.13
2016-11-14T12:38:02.123Z,11.91
2016-11-14T12:39:12.094Z,11.81
2016-11-14T12:40:22.061Z,11.78
2016-11-14T12:41:32.034Z,11.59
2016-11-14T12:42:41.703Z,11.43
2016-11-14T12:43:51.672Z,11.31
2016-11-14T12:45:01.695Z,11.27
2016-11-14T12:46:11.349Z,11.09
2016-11-14T12:47:21.323Z,10.95
2016-11-14T12:48:31.307Z,10.83
2016-11-14T12:49:41.581Z,10.9
2016-11-14T12:50:51.550Z,10.73
2016-11-14T12:52:01.528Z,10.79
2016-11-14T12:53:11.514Z,10.7
2016-11-14T12:54:21.497Z,10.66
2016-11-14T12:55:30.537Z,10.57
2016-11-14T12:56:40.521Z,10.63
2016-11-14T12:57:50.197Z,10.55
2016-11-14T12:59:00.171Z,10.42
2016-11-14T13:00:09.823Z,10.39
2016-11-14T13:01:20.022Z,10.35
2016-11-14T13:02:29.692Z,10.31
2016-11-14T13:03:39.658Z,10.21
2016-11-14T13:04:49.036Z,10.18
2016-11-14T13:05:58.708Z,10.21
2016-11-14T13:07:08.974Z,10.2
2016-11-14T13:08:18.955Z,10.13
2016-11-14T13:09:28.921Z,10.02
2016-11-14T13:10:39.195Z,10.05
2016-11-14T13:11:49.171Z,10.05
2016-11-14T13:12:59.442Z,9.99
2016-11-14T13:14:09.746Z,9.95
2016-11-14T13:15:19.715Z,9.84
2016-11-14T13:16:29.677Z,10.02
2016-11-14T13:17:39.653Z,10.13
2016-11-14T13:18:49.926Z,10.28
2016-11-14T13:20:00.192Z,10.32
2016-11-14T13:21:10.160Z,10.41
2016-11-14T13:22:19.815Z,10.35
2016-11-14T13:23:29.813Z,10.21
2016-11-14T13:24:39.763Z,10.15
2016-11-14T13:25:49.438Z,9.92
2016-11-14T13:26:59.402Z,9.93
2016-11-14T13:28:09.674Z,9.92
2016-11-14T13:29:19.644Z,9.84
2016-11-14T13:30:29.638Z,9.81
2016-11-14T13:31:39.612Z,9.88
2016-11-14T13:32:49.901Z,9.88
2016-11-14T13:33:59.882Z,9.81
2016-11-14T13:35:10.195Z,9.64
2016-11-14T13:36:20.482Z,9.63
2016-11-14T13:37:30.766Z,9.57
2016-11-14T13:38:41.055Z,9.56
2016-11-14T13:39:51.045Z,9.47
2016-11-14T13:41:01.323Z,9.47
2016-11-14T13:42:11.304Z,9.3
2016-11-14T13:43:21.281Z,9.35
2016-11-14T13:44:30.942Z,9.24
2016-11-14T13:45:41.223Z,9.21
2016-11-14T13:46:51.480Z,9.26
2016-11-14T13:48:01.462Z,9.24
2016-11-14T13:49:11.448Z,9.32
2016-11-14T13:50:20.794Z,9.26
2016-11-14T13:51:31.063Z,9.34
2016-11-14T13:52:40.731Z,9.35
2016-11-14T13:53:50.690Z,9.55
2016-11-14T13:55:00.662Z,9.62
2016-11-14T13:56:10.629Z,9.78
2016-11-14T13:57:20.906Z,9.81
2016-11-14T13:58:30.572Z,9.8
2016-11-14T13:59:41.094Z,10
2016-11-14T14:00:51.051Z,9.96
2016-11-14T14:02:01.318Z,10.03
2016-11-14T14:03:11.323Z,10.11
2016-11-14T14:04:21.637Z,9.99
2016-11-14T14:05:31.291Z,10.03
2016-11-14T14:06:41.573Z,10.1
2016-11-14T14:07:52.241Z,10.08
2016-11-14T14:09:02.262Z,9.95
2016-11-14T14:10:12.244Z,9.9
2016-11-14T14:11:22.215Z,9.92
2016-11-14T14:12:32.511Z,9.8
2016-11-14T14:13:42.794Z,9.85
2016-11-14T14:14:53.091Z,9.85
2016-11-14T14:16:02.405Z,9.72
2016-11-14T14:17:12.690Z,9.8
2016-11-14T14:18:22.991Z,9.75
2016-11-14T14:19:32.968Z,9.6
2016-11-14T14:20:42.934Z,9.55
2016-11-14T14:21:53.222Z,9.6
2016-11-14T14:23:03.208Z,9.63
2016-11-14T14:24:13.533Z,9.59
2016-11-14T14:25:23.501Z,9.57
2016-11-14T14:26:33.803Z,9.52
2016-11-14T14:27:44.080Z,9.44
2016-11-14T14:28:54.375Z,9.27
2016-11-14T14:30:04.340Z,9.32
2016-11-14T14:31:14.015Z,9.26
2016-11-14T14:32:24.289Z,9.14
2016-11-14T14:33:33.968Z,9.05
2016-11-14T14:34:43.949Z,9.04
2016-11-14T14:35:54.230Z,8.89
2016-11-14T14:37:03.898Z,8.9
2016-11-14T14:38:13.870Z,8.8
2016-11-14T14:39:23.852Z,8.79
2016-11-14T14:40:33.506Z,8.68
2016-11-14T14:41:43.780Z,8.69
2016-11-14T14:42:54.062Z,8.61
2016-11-14T14:44:03.733Z,8.54
2016-11-14T14:45:13.400Z,8.52
2016-11-14T14:46:23.686Z,8.46
2016-11-14T14:47:33.688Z,8.47
2016-11-14T14:48:43.354Z,8.4
2016-11-14T14:49:53.632Z,8.34
2016-11-14T14:51:03.626Z,8.35
2016-11-14T14:52:13.918Z,8.28
2016-11-14T14:53:23.901Z,8.16
2016-11-14T14:54:33.573Z,8.17
2016-11-14T14:55:43.244Z,8.16
2016-11-14T14:56:53.201Z,8.14
2016-11-14T14:58:03.180Z,8.07
2016-11-14T14:59:13.487Z,8.01
2016-11-14T15:00:23.767Z,7.96
2016-11-14T15:01:33.787Z,7.96
2016-11-14T15:02:43.147Z,7.93
2016-11-14T15:03:53.122Z,7.88
2016-11-14T15:05:03.104Z,7.78
2016-11-14T15:06:13.075Z,7.8
2016-11-14T15:07:23.049Z,7.74
2016-11-14T15:08:33.329Z,7.73
2016-11-14T15:09:42.991Z,7.59
2016-11-14T15:10:53.271Z,7.58
2016-11-14T15:12:03.255Z,7.61
2016-11-14T15:13:13.525Z,7.52
2016-11-14T15:14:23.499Z,7.54
2016-11-14T15:15:32.844Z,7.49
2016-11-14T15:16:42.495Z,7.34
2016-11-14T15:17:52.793Z,7.48
2016-11-14T15:19:02.789Z,7.44
2016-11-14T15:20:13.093Z,7.4
2016-11-14T15:21:23.102Z,7.37
2016-11-14T15:22:33.424Z,7.36
2016-11-14T15:23:43.105Z,7.37
2016-11-14T15:24:53.473Z,7.26
2016-11-14T15:26:03.466Z,7.27
2016-11-14T15:27:13.760Z,7.23
2016-11-14T15:28:23.761Z,7.16
2016-11-14T15:29:33.495Z,7.21
2016-11-14T15:30:43.159Z,7.18
2016-11-14T15:31:53.461Z,7.15
2016-11-14T15:33:03.742Z,7.09
2016-11-14T15:34:14.045Z,7.08
2016-11-14T15:35:24.351Z,7.09
2016-11-14T15:36:34.366Z,7.13
2016-11-14T15:37:44.739Z,7.04
2016-11-14T15:38:54.728Z,7
2016-11-14T15:40:05.068Z,7
2016-11-14T15:41:15.041Z,6.94
2016-11-14T15:42:25.363Z,6.94
2016-11-14T15:43:35.360Z,6.94
2016-11-14T15:44:45.346Z,6.76
2016-11-14T15:45:55.323Z,6.86
2016-11-14T15:47:05.287Z,6.79
2016-11-14T15:48:15.001Z,6.75
2016-11-14T15:49:25.042Z,6.75
2016-11-14T15:50:35.455Z,6.7
2016-11-14T15:51:45.242Z,6.72
2016-11-14T15:52:55.681Z,6.7
2016-11-14T15:54:06.017Z,6.67
2016-11-14T15:55:16.372Z,6.64
2016-11-14T15:56:26.397Z,6.64
2016-11-14T15:57:36.735Z,6.57